Time;durP1;ratioP1;P1;durP2;ratioP2;P2;SDS_P1;SDS_P2;PMS_P1;PMS_P2;Temp;Humidity;BMP_temperature;BMP_pressure;BME280_temperature;BME280_humidity;BME280_pressure;Samples;Min_cycle;Max_cycle;Signal;HPM_P1;HPM_P2
2023/10/21 00:02:55;;;;;;;2.10;1.00;;;11.80;99.90;;;;;;7300528;32;20103;-56
2023/10/21 00:06:57;;;;;;;5.35;0.98;;;11.80;99.90;;;;;;7300196;32;20096;-57
2023/10/21 00:11:09;;;;;;;1.85;0.98;;;11.80;99.90;;;;;;7302222;32;20184;-57
2023/10/21 00:15:11;;;;;;;3.05;1.00;;;11.80;99.90;;;;;;7298855;32;20170;-56
2023/10/21 00:19:13;;;;;;;2.85;1.10;;;11.90;99.90;;;;;;7300552;32;20118;-56
2023/10/21 00:23:14;;;;;;;1.30;0.70;;;11.90;99.90;;;;;;7302285;32;20155;-55
2023/10/21 00:27:16;;;;;;;2.35;1.27;;;12.00;99.90;;;;;;7298703;32;20153;-57
2023/10/21 00:31:19;;;;;;;2.90;0.65;;;12.10;99.90;;;;;;7297838;32;20132;-55
2023/10/21 00:35:22;;;;;;;2.12;0.88;;;12.20;99.90;;;;;;7300575;32;20593;-58
2023/10/21 00:39:24;;;;;;;1.25;0.77;;;12.20;99.90;;;;;;7298543;32;20517;-57
2023/10/21 00:43:42;;;;;;;3.00;0.90;;;12.30;99.90;;;;;;7303936;32;20119;-56
2023/10/21 00:47:44;;;;;;;1.17;0.70;;;12.30;99.90;;;;;;7296232;32;20123;-55
2023/10/21 00:51:47;;;;;;;3.35;0.77;;;12.40;99.90;;;;;;7299371;32;20108;-58
2023/10/21 00:55:50;;;;;;;1.00;0.52;;;12.40;99.90;;;;;;7303601;32;20107;-57
2023/10/21 00:59:52;;;;;;;1.37;0.88;;;12.40;99.90;;;;;;7301960;32;20285;-56
2023/10/21 01:03:54;;;;;;;1.58;0.57;;;12.40;99.90;;;;;;7301112;32;20167;-55
2023/10/21 01:07:59;;;;;;;1.45;0.60;;;12.50;99.90;;;;;;7303135;32;20392;-56
2023/10/21 01:12:01;;;;;;;1.50;0.70;;;12.50;99.90;;;;;;7298431;32;20326;-57
2023/10/21 01:16:03;;;;;;;1.83;0.80;;;12.50;99.90;;;;;;7298834;32;20743;-56
2023/10/21 01:20:06;;;;;;;2.22;0.57;;;12.60;99.90;;;;;;7302499;32;20096;-57
2023/10/21 01:24:08;;;;;;;1.95;0.70;;;12.60;99.90;;;;;;7302979;32;20134;-56
2023/10/21 01:28:10;;;;;;;1.30;0.80;;;12.60;99.90;;;;;;7295566;32;20123;-57
2023/10/21 01:32:11;;;;;;;3.12;0.70;;;12.60;99.90;;;;;;7298056;32;20580;-55
2023/10/21 01:36:13;;;;;;;3.75;0.90;;;12.60;99.90;;;;;;7301270;32;20215;-56
2023/10/21 01:40:15;;;;;;;3.42;0.70;;;12.60;99.90;;;;;;7298319;32;20147;-56
2023/10/21 01:44:17;;;;;;;0.52;0.50;;;12.70;99.90;;;;;;7295034;32;20103;-56
2023/10/21 01:48:18;;;;;;;3.10;0.70;;;12.70;99.90;;;;;;7301514;32;20467;-56
2023/10/21 01:52:20;;;;;;;2.35;0.80;;;12.70;99.90;;;;;;7302797;32;20183;-57
2023/10/21 01:56:22;;;;;;;0.55;0.55;;;12.70;99.90;;;;;;7306039;32;20194;-55
2023/10/21 02:00:23;;;;;;;3.20;0.65;;;12.70;99.90;;;;;;7304269;32;20292;-56
2023/10/21 02:04:25;;;;;;;2.85;0.73;;;12.70;99.90;;;;;;7302975;32;20153;-56
2023/10/21 02:08:27;;;;;;;1.45;0.50;;;12.70;99.90;;;;;;7298225;32;20131;-57
2023/10/21 02:12:29;;;;;;;3.47;0.90;;;12.70;99.90;;;;;;7306662;32;20100;-57
2023/10/21 02:16:31;;;;;;;3.58;0.80;;;12.70;99.90;;;;;;7304240;32;20252;-55
2023/10/21 02:20:33;;;;;;;2.42;0.57;;;12.70;99.90;;;;;;7306900;32;20810;-56
2023/10/21 02:24:35;;;;;;;1.35;0.73;;;12.70;99.90;;;;;;7297270;32;20222;-56
2023/10/21 02:28:37;;;;;;;3.17;0.65;;;12.80;99.90;;;;;;7305661;32;20225;-57
2023/10/21 02:32:45;;;;;;;1.17;0.60;;;12.80;99.90;;;;;;7305579;32;20130;-56
2023/10/21 02:36:48;;;;;;;2.12;0.82;;;12.90;99.90;;;;;;7300929;32;20120;-57
2023/10/21 02:40:49;;;;;;;1.12;0.90;;;12.80;99.90;;;;;;7304939;32;20478;-57
2023/10/21 02:44:52;;;;;;;2.40;1.08;;;12.90;99.90;;;;;;7302742;32;20127;-56
2023/10/21 02:48:53;;;;;;;2.53;1.08;;;12.80;99.90;;;;;;7305818;32;20204;-56
2023/10/21 02:52:55;;;;;;;4.53;1.00;;;12.80;99.90;;;;;;7305131;32;20422;-57
2023/10/21 02:56:57;;;;;;;1.50;1.10;;;12.80;99.90;;;;;;7302047;32;20103;-57
2023/10/21 03:01:04;;;;;;;3.80;1.37;;;12.80;99.90;;;;;;7301559;32;20242;-56
2023/10/21 03:05:07;;;;;;;4.30;1.52;;;12.80;99.90;;;;;;7301707;32;20804;-57
2023/10/21 03:09:09;;;;;;;3.83;1.80;;;12.80;99.90;;;;;;7302946;32;20513;-56
2023/10/21 03:13:11;;;;;;;4.65;2.47;;;12.80;99.90;;;;;;7304360;32;20632;-58
2023/10/21 03:17:14;;;;;;;3.30;2.10;;;12.80;99.90;;;;;;7305112;32;20736;-56
2023/10/21 03:21:15;;;;;;;5.18;2.33;;;12.70;99.90;;;;;;7301191;32;20103;-56
2023/10/21 03:25:17;;;;;;;2.65;2.03;;;12.80;99.90;;;;;;7304543;32;20521;-56
2023/10/21 03:29:19;;;;;;;4.78;2.50;;;12.70;99.90;;;;;;7305821;32;20179;-57
2023/10/21 03:33:21;;;;;;;5.75;2.37;;;12.70;99.90;;;;;;7302532;32;20197;-57
2023/10/21 03:37:23;;;;;;;2.40;1.87;;;12.80;99.90;;;;;;7303588;32;20248;-56
2023/10/21 03:41:25;;;;;;;3.83;1.80;;;12.80;99.90;;;;;;7297988;32;20139;-55
2023/10/21 03:45:28;;;;;;;3.90;2.20;;;12.80;99.90;;;;;;7303272;32;20648;-55
2023/10/21 03:49:30;;;;;;;5.03;2.22;;;12.80;99.90;;;;;;7298380;32;20179;-55
2023/10/21 03:53:33;;;;;;;3.15;2.25;;;12.90;99.90;;;;;;7302268;32;20611;-57
2023/10/21 03:57:34;;;;;;;5.85;2.55;;;12.90;99.90;;;;;;7297038;32;20203;-56
2023/10/21 04:01:36;;;;;;;3.35;2.47;;;12.90;99.90;;;;;;7302786;32;20130;-57
2023/10/21 04:05:39;;;;;;;7.70;2.72;;;13.00;99.90;;;;;;7299604;32;20447;-57
2023/10/21 04:09:40;;;;;;;5.47;2.85;;;12.90;99.90;;;;;;7299815;32;20145;-57
2023/10/21 04:13:42;;;;;;;5.15;2.80;;;13.00;99.90;;;;;;7303380;32;20220;-56
2023/10/21 04:17:45;;;;;;;5.75;2.78;;;13.00;99.90;;;;;;7301749;32;20263;-57
2023/10/21 04:21:47;;;;;;;3.62;3.15;;;13.00;99.90;;;;;;7298384;32;20116;-57
2023/10/21 04:25:49;;;;;;;4.35;3.12;;;13.00;99.90;;;;;;7300260;32;20225;-58
2023/10/21 04:29:50;;;;;;;7.75;2.83;;;13.00;99.90;;;;;;7301821;32;20104;-56
2023/10/21 04:33:52;;;;;;;5.57;3.03;;;13.00;99.90;;;;;;7302864;32;20265;-56
2023/10/21 04:37:55;;;;;;;5.97;3.17;;;13.00;99.90;;;;;;7295131;32;20123;-57
2023/10/21 04:41:56;;;;;;;3.50;2.40;;;13.00;99.90;;;;;;7302524;32;20560;-57
2023/10/21 04:45:58;;;;;;;6.18;2.72;;;13.00;99.90;;;;;;7301055;32;20103;-57
2023/10/21 04:50:00;;;;;;;4.22;2.58;;;13.00;99.90;;;;;;7302383;32;20404;-57
2023/10/21 04:54:03;;;;;;;3.67;2.67;;;13.00;99.90;;;;;;7299654;32;20250;-56
2023/10/21 04:58:05;;;;;;;3.97;2.42;;;13.10;99.90;;;;;;7291051;32;20475;-56
2023/10/21 05:02:07;;;;;;;3.95;2.83;;;13.00;99.90;;;;;;7302545;32;20164;-57
2023/10/21 05:06:10;;;;;;;4.28;2.45;;;13.00;99.90;;;;;;7301910;32;20566;-56
2023/10/21 05:10:12;;;;;;;4.95;2.55;;;13.00;99.90;;;;;;7297918;32;20674;-56
2023/10/21 05:14:14;;;;;;;2.92;2.37;;;13.00;99.90;;;;;;7300653;32;20183;-56
2023/10/21 05:18:16;;;;;;;7.05;2.65;;;13.00;99.90;;;;;;7295650;32;20166;-57
2023/10/21 05:22:18;;;;;;;3.08;2.22;;;12.90;99.90;;;;;;7293461;32;20112;-58
2023/10/21 05:26:20;;;;;;;3.05;1.90;;;12.90;99.90;;;;;;7301623;32;20567;-56
2023/10/21 05:30:22;;;;;;;2.83;2.12;;;12.70;99.90;;;;;;7297987;32;20169;-55
2023/10/21 05:34:23;;;;;;;4.32;2.60;;;12.60;99.90;;;;;;7295940;32;20120;-57
2023/10/21 05:38:26;;;;;;;4.20;2.20;;;12.60;99.90;;;;;;7298814;32;20606;-56
2023/10/21 05:42:28;;;;;;;5.07;2.17;;;12.40;99.90;;;;;;7299573;32;20838;-57
2023/10/21 05:46:29;;;;;;;5.80;2.35;;;12.30;99.90;;;;;;7295378;32;20123;-56
2023/10/21 05:50:31;;;;;;;5.35;3.35;;;12.20;99.90;;;;;;7292304;32;20205;-56
2023/10/21 05:54:33;;;;;;;6.65;4.03;;;12.30;99.90;;;;;;7293147;32;20111;-57
2023/10/21 05:58:35;;;;;;;7.05;4.90;;;12.20;99.90;;;;;;7294673;32;20116;-57
2023/10/21 06:02:37;;;;;;;6.53;5.20;;;12.20;99.90;;;;;;7299297;32;20298;-57
2023/10/21 06:06:39;;;;;;;10.70;4.20;;;12.20;99.90;;;;;;7285703;32;20841;-56
2023/10/21 06:10:44;;;;;;;6.35;4.50;;;12.20;99.90;;;;;;7293046;32;20136;-57
2023/10/21 06:14:45;;;;;;;5.68;3.33;;;12.30;99.90;;;;;;7292313;32;20207;-57
2023/10/21 06:18:47;;;;;;;6.07;4.20;;;12.40;99.90;;;;;;7292887;32;20116;-56
2023/10/21 06:22:49;;;;;;;4.78;3.67;;;12.50;99.90;;;;;;7291744;32;20243;-57
2023/10/21 06:26:51;;;;;;;5.78;3.60;;;12.50;99.90;;;;;;7296867;32;20159;-57
2023/10/21 06:30:53;;;;;;;6.62;4.25;;;12.50;99.90;;;;;;7297308;32;20264;-58
2023/10/21 06:34:54;;;;;;;5.20;3.85;;;12.60;99.90;;;;;;7299033;32;20240;-58
2023/10/21 06:38:57;;;;;;;5.32;3.70;;;12.60;99.90;;;;;;7295476;32;20209;-57
2023/10/21 06:43:00;;;;;;;5.90;4.00;;;12.80;99.90;;;;;;7299112;32;20108;-58
2023/10/21 06:47:02;;;;;;;5.70;2.83;;;12.80;99.90;;;;;;7304760;32;20210;-58
2023/10/21 06:51:04;;;;;;;5.60;2.37;;;12.90;99.90;;;;;;7303964;32;20234;-57
2023/10/21 06:55:07;;;;;;;2.65;2.30;;;12.80;99.90;;;;;;7300428;32;20161;-57
2023/10/21 06:59:09;;;;;;;4.82;2.12;;;12.90;99.90;;;;;;7299111;32;20171;-58
2023/10/21 07:03:11;;;;;;;2.87;1.50;;;12.90;99.90;;;;;;7299098;32;20145;-57
2023/10/21 07:07:13;;;;;;;5.05;1.70;;;13.00;99.90;;;;;;7303477;32;20194;-58
2023/10/21 07:11:15;;;;;;;1.77;1.33;;;13.00;99.90;;;;;;7297352;32;20108;-58
2023/10/21 07:15:17;;;;;;;3.75;1.50;;;13.00;99.90;;;;;;7299816;32;20130;-57
2023/10/21 07:19:19;;;;;;;2.35;1.33;;;13.00;99.90;;;;;;7303312;32;20103;-59
2023/10/21 07:23:21;;;;;;;2.12;1.10;;;13.00;99.90;;;;;;7297211;32;20139;-57
2023/10/21 07:27:24;;;;;;;4.00;1.10;;;13.10;99.90;;;;;;7296421;32;20306;-57
2023/10/21 07:31:25;;;;;;;4.25;2.67;;;13.20;99.90;;;;;;7294367;32;20126;-58
2023/10/21 07:35:27;;;;;;;2.92;1.23;;;13.10;99.90;;;;;;7298356;32;20140;-57
2023/10/21 07:39:29;;;;;;;3.37;0.90;;;13.20;99.90;;;;;;7297995;32;20214;-58
2023/10/21 07:43:31;;;;;;;2.67;0.60;;;13.10;99.90;;;;;;7300455;32;20589;-58
2023/10/21 07:47:33;;;;;;;1.02;0.60;;;13.10;99.90;;;;;;7296065;32;20260;-56
2023/10/21 07:51:35;;;;;;;3.65;0.50;;;13.00;99.90;;;;;;7300338;32;20104;-57
2023/10/21 07:55:36;;;;;;;3.65;0.47;;;12.90;99.90;;;;;;7302248;32;20140;-58
2023/10/21 07:59:38;;;;;;;1.90;0.35;;;13.00;99.90;;;;;;7298999;32;20135;-57
2023/10/21 08:03:40;;;;;;;0.45;0.20;;;13.00;99.90;;;;;;7299709;32;20477;-56
2023/10/21 08:07:42;;;;;;;1.37;0.40;;;13.00;99.90;;;;;;7293535;32;20251;-57
2023/10/21 08:11:44;;;;;;;1.05;0.32;;;13.00;99.90;;;;;;7297346;32;20211;-58
2023/10/21 08:15:46;;;;;;;2.62;0.60;;;13.00;99.90;;;;;;7299229;32;20270;-57
2023/10/21 08:19:48;;;;;;;0.62;0.32;;;13.00;99.90;;;;;;7294826;32;20284;-57
2023/10/21 08:23:49;;;;;;;0.45;0.30;;;13.00;99.90;;;;;;7296448;32;20172;-57
2023/10/21 08:27:51;;;;;;;3.45;0.82;;;13.00;99.90;;;;;;7297488;32;20230;-57
2023/10/21 08:31:53;;;;;;;1.08;0.47;;;13.00;99.90;;;;;;7294626;32;20134;-56
2023/10/21 08:35:55;;;;;;;1.25;0.70;;;13.10;99.90;;;;;;7297161;32;20462;-58
2023/10/21 08:39:56;;;;;;;0.82;0.40;;;13.10;99.90;;;;;;7296794;32;20483;-56
2023/10/21 08:43:58;;;;;;;1.15;0.30;;;13.10;99.90;;;;;;7294460;32;20120;-57
2023/10/21 08:48:01;;;;;;;1.02;0.52;;;13.10;99.90;;;;;;7296756;32;21058;-57
2023/10/21 08:52:04;;;;;;;1.25;0.50;;;13.30;99.90;;;;;;7297708;32;20217;-56
2023/10/21 08:56:06;;;;;;;1.67;0.22;;;13.60;99.90;;;;;;7292939;32;20333;-57
2023/10/21 09:00:10;;;;;;;0.30;0.10;;;13.70;99.90;;;;;;7299207;32;20752;-58
2023/10/21 09:04:16;;;;;;;0.32;0.20;;;13.80;99.90;;;;;;7297697;32;20573;-57
2023/10/21 09:08:30;;;;;;;1.65;0.30;;;13.70;99.90;;;;;;7293097;32;20128;-57
2023/10/21 09:12:32;;;;;;;1.58;0.30;;;13.50;99.90;;;;;;7297220;32;20362;-56
2023/10/21 09:16:34;;;;;;;1.17;0.22;;;13.50;99.90;;;;;;7299924;32;20133;-58
2023/10/21 09:20:37;;;;;;;1.48;0.90;;;13.70;99.90;;;;;;7300547;32;20111;-56
2023/10/21 09:24:39;;;;;;;1.85;0.60;;;14.30;99.90;;;;;;7300436;32;20177;-56
2023/10/21 09:28:40;;;;;;;0.82;0.50;;;14.80;99.90;;;;;;7296634;32;20116;-57
2023/10/21 09:32:43;;;;;;;2.10;0.30;;;15.10;99.90;;;;;;7295017;32;20121;-57
2023/10/21 09:36:45;;;;;;;1.35;0.30;;;15.30;99.90;;;;;;7297676;32;20111;-56
2023/10/21 09:40:47;;;;;;;1.65;0.20;;;15.20;99.90;;;;;;7290090;32;20151;-57
2023/10/21 09:44:49;;;;;;;1.20;0.40;;;14.80;99.90;;;;;;7298227;32;20169;-55
2023/10/21 09:48:53;;;;;;;2.42;0.73;;;14.60;99.90;;;;;;7297273;32;20132;-58
2023/10/21 09:53:10;;;;;;;1.27;0.40;;;14.30;99.90;;;;;;7296597;32;20108;-56
2023/10/21 09:57:12;;;;;;;;;;;14.10;99.90;;;;;;7293573;32;20244;-57
2023/10/21 10:01:17;;;;;;;2.87;0.20;;;14.20;99.90;;;;;;7295142;32;20456;-56
2023/10/21 10:05:20;;;;;;;0.77;0.20;;;14.20;99.90;;;;;;7296169;32;20506;-56
2023/10/21 10:09:23;;;;;;;1.12;0.40;;;14.30;99.90;;;;;;7299178;32;20277;-56
2023/10/21 10:13:26;;;;;;;1.80;0.40;;;14.30;99.90;;;;;;7295799;32;20137;-56
2023/10/21 10:17:51;;;;;;;2.28;0.40;;;14.30;99.90;;;;;;7299632;32;20116;-58
2023/10/21 10:21:52;;;;;;;1.23;0.32;;;14.50;99.90;;;;;;7297231;32;20127;-57
2023/10/21 10:25:57;;;;;;;1.27;0.32;;;14.50;99.90;;;;;;7299375;32;20237;-56
2023/10/21 10:29:59;;;;;;;3.10;0.40;;;14.60;99.90;;;;;;7303044;32;20641;-56
2023/10/21 10:34:01;;;;;;;2.17;0.30;;;14.70;99.90;;;;;;7294597;32;20108;-57
2023/10/21 10:38:19;;;;;;;5.47;0.50;;;14.90;99.90;;;;;;7298431;32;20165;-57
2023/10/21 10:42:27;;;;;;;3.50;0.50;;;15.20;99.90;;;;;;7302727;32;20184;-59
2023/10/21 10:46:30;;;;;;;2.08;0.60;;;15.20;99.90;;;;;;7300944;32;20196;-64
2023/10/21 10:50:37;;;;;;;4.05;0.52;;;15.50;99.90;;;;;;7297796;32;20291;-64
2023/10/21 10:54:42;;;;;;;0.60;0.20;;;15.60;99.90;;;;;;7300119;32;20182;-64
2023/10/21 10:58:47;;;;;;;1.15;0.30;;;15.70;99.90;;;;;;7301414;32;20206;-57
2023/10/21 11:02:49;;;;;;;3.85;0.47;;;15.60;99.90;;;;;;7302623;32;20100;-57
2023/10/21 11:06:52;;;;;;;3.30;0.50;;;15.50;99.90;;;;;;7298542;32;20144;-57
2023/10/21 11:11:10;;;;;;;1.75;0.50;;;15.40;99.90;;;;;;7302922;32;20211;-58
2023/10/21 11:15:12;;;;;;;2.67;0.32;;;15.30;99.90;;;;;;7302331;32;20158;-57
2023/10/21 11:19:14;;;;;;;1.45;0.40;;;15.40;99.90;;;;;;7306875;32;20577;-57
2023/10/21 11:23:18;;;;;;;2.78;0.50;;;15.40;99.90;;;;;;7295877;32;20132;-58
2023/10/21 11:27:20;;;;;;;4.43;0.50;;;15.40;99.90;;;;;;7305898;32;20138;-57
2023/10/21 11:31:22;;;;;;;2.35;0.40;;;15.50;99.90;;;;;;7305495;32;20178;-60
2023/10/21 11:35:24;;;;;;;1.48;0.40;;;15.40;99.90;;;;;;7301990;32;20203;-58
2023/10/21 11:39:26;;;;;;;5.00;0.70;;;15.30;99.90;;;;;;7297401;32;20109;-58
2023/10/21 11:43:28;;;;;;;4.28;0.40;;;15.30;99.90;;;;;;7298114;32;20529;-59
2023/10/21 11:47:31;;;;;;;2.62;0.50;;;15.20;99.90;;;;;;7306135;32;20179;-57
2023/10/21 11:51:33;;;;;;;3.45;1.00;;;15.30;99.90;;;;;;7296665;32;20215;-57
2023/10/21 12:01:20;;;;;;;5.43;0.70;;;15.20;99.90;;;;;;7300627;32;20264;-57
2023/10/21 12:09:51;;;;;;;3.08;0.68;;;15.00;99.90;;;;;;7293708;32;20831;-57
2023/10/21 12:38:40;;;;;;;4.18;0.65;;;15.60;99.90;;;;;;7302481;32;20116;-56
2023/10/21 12:42:45;;;;;;;4.32;0.65;;;15.60;99.90;;;;;;7298920;32;20396;-57
2023/10/21 12:46:51;;;;;;;5.18;1.25;;;15.60;99.90;;;;;;7300909;32;20526;-57
2023/10/21 12:50:54;;;;;;;6.60;0.75;;;15.70;99.90;;;;;;7297742;32;20178;-57
2023/10/21 12:54:56;;;;;;;4.78;0.85;;;15.70;99.90;;;;;;7298873;32;20258;-58
2023/10/21 12:58:58;;;;;;;3.62;0.65;;;15.80;99.90;;;;;;7293789;32;20120;-56
2023/10/21 13:03:00;;;;;;;4.90;0.75;;;15.80;99.90;;;;;;7292722;32;20576;-56
2023/10/21 13:07:04;;;;;;;3.67;0.80;;;15.70;99.90;;;;;;7297254;32;20228;-56
2023/10/21 13:11:06;;;;;;;2.85;0.62;;;15.80;99.90;;;;;;7297832;32;20249;-57
2023/10/21 13:15:12;;;;;;;4.68;0.82;;;15.80;99.90;;;;;;7295724;32;20177;-56
2023/10/21 13:19:14;;;;;;;4.82;0.93;;;15.80;99.90;;;;;;7298498;32;20238;-56
2023/10/21 13:23:16;;;;;;;7.22;1.08;;;15.90;99.90;;;;;;7297943;32;20103;-57
2023/10/21 13:27:18;;;;;;;2.95;0.90;;;16.00;99.90;;;;;;7299827;32;20173;-57
2023/10/21 13:31:20;;;;;;;6.78;0.80;;;15.90;99.90;;;;;;7298042;32;20555;-57
2023/10/21 13:35:22;;;;;;;5.93;0.80;;;15.80;99.90;;;;;;7300785;32;20180;-56
2023/10/21 13:39:28;;;;;;;8.52;0.90;;;15.70;99.90;;;;;;7292175;32;20225;-57
2023/10/21 13:43:30;;;;;;;4.28;0.93;;;15.80;99.90;;;;;;7298395;32;20111;-57
2023/10/21 13:47:32;;;;;;;4.82;0.90;;;16.00;99.90;;;;;;7297416;32;20520;-56
2023/10/21 13:51:33;;;;;;;5.20;1.17;;;15.90;99.90;;;;;;7303930;32;20158;-64
2023/10/21 13:55:35;;;;;;;3.70;0.93;;;15.90;99.90;;;;;;7304312;32;20135;-64
2023/10/21 13:59:37;;;;;;;8.30;1.00;;;15.90;99.90;;;;;;7302806;32;20124;-63
2023/10/21 14:03:39;;;;;;;4.43;0.65;;;15.90;99.90;;;;;;7304001;32;20225;-64
2023/10/21 14:07:41;;;;;;;7.25;0.90;;;15.80;99.90;;;;;;7306452;32;20138;-64
2023/10/21 14:11:43;;;;;;;5.55;0.95;;;15.70;99.90;;;;;;7305896;32;20137;-64
2023/10/21 14:15:48;;;;;;;4.72;1.10;;;15.80;99.90;;;;;;7296587;32;20289;-56
2023/10/21 14:19:53;;;;;;;5.35;0.73;;;15.80;99.90;;;;;;7298342;32;20122;-56
2023/10/21 14:23:55;;;;;;;7.65;0.90;;;15.80;99.90;;;;;;7294736;32;20263;-55
2023/10/21 14:27:57;;;;;;;6.22;1.10;;;15.80;99.90;;;;;;7295091;32;20126;-56
2023/10/21 14:31:58;;;;;;;3.50;0.82;;;15.80;99.90;;;;;;7297489;32;20503;-56
2023/10/21 14:36:05;;;;;;;4.40;1.10;;;15.80;99.90;;;;;;7305074;32;20559;-56
2023/10/21 14:40:10;;;;;;;2.87;0.85;;;15.70;99.90;;;;;;7295486;32;20108;-57
2023/10/21 14:44:12;;;;;;;5.65;0.80;;;15.70;99.90;;;;;;7304640;32;20460;-57
2023/10/21 14:48:18;;;;;;;7.95;0.98;;;15.60;99.90;;;;;;7304998;32;20178;-58
2023/10/21 14:52:21;;;;;;;5.87;0.90;;;15.60;99.90;;;;;;7296261;32;20176;-58
2023/10/21 14:56:22;;;;;;;4.10;0.70;;;15.50;99.90;;;;;;7294371;32;20379;-57
2023/10/21 15:00:25;;;;;;;5.30;1.00;;;15.50;99.90;;;;;;7304607;32;20645;-56
2023/10/21 15:04:27;;;;;;;3.55;0.70;;;15.50;99.90;;;;;;7299673;32;20191;-57
2023/10/21 15:08:30;;;;;;;5.53;0.80;;;15.30;99.90;;;;;;7302234;32;20170;-57
2023/10/21 15:12:32;;;;;;;4.68;0.80;;;15.30;99.90;;;;;;7301646;32;20176;-57
2023/10/21 15:16:35;;;;;;;6.32;1.05;;;15.30;99.90;;;;;;7289850;32;20262;-57
2023/10/21 15:20:37;;;;;;;5.15;1.00;;;15.30;99.90;;;;;;7296217;32;20108;-57
2023/10/21 15:24:39;;;;;;;5.18;0.75;;;15.20;99.90;;;;;;7297095;32;20227;-56
2023/10/21 15:28:40;;;;;;;6.60;1.10;;;15.20;99.90;;;;;;7302446;32;20126;-56
2023/10/21 15:32:43;;;;;;;2.90;0.65;;;15.20;99.90;;;;;;7298135;32;20128;-58
2023/10/21 15:36:47;;;;;;;4.65;0.75;;;15.10;99.90;;;;;;7302165;32;20210;-56
2023/10/21 15:40:49;;;;;;;3.97;0.75;;;15.00;99.90;;;;;;7301364;32;20134;-57
2023/10/21 15:44:51;;;;;;;7.30;1.08;;;14.90;99.90;;;;;;7293729;32;20183;-57
2023/10/21 15:48:54;;;;;;;4.87;0.88;;;14.90;99.90;;;;;;7293882;32;20112;-57
2023/10/21 15:52:56;;;;;;;4.65;0.82;;;14.90;99.90;;;;;;7295259;32;20138;-59
2023/10/21 15:56:58;;;;;;;7.87;0.90;;;14.80;99.90;;;;;;7297012;32;20759;-57
2023/10/21 16:00:59;;;;;;;7.40;0.80;;;14.60;99.90;;;;;;7299351;32;20123;-59
2023/10/21 16:05:01;;;;;;;4.25;0.70;;;14.60;99.90;;;;;;7297222;32;20198;-56
2023/10/21 16:09:03;;;;;;;5.90;1.10;;;14.50;99.90;;;;;;7302568;32;20186;-57
2023/10/21 16:13:05;;;;;;;5.95;1.00;;;14.30;99.90;;;;;;7304717;32;20699;-57
2023/10/21 16:17:06;;;;;;;5.32;1.17;;;14.20;99.90;;;;;;7300573;32;20161;-58
2023/10/21 16:21:08;;;;;;;4.85;0.85;;;14.00;99.90;;;;;;7299961;32;20243;-57
2023/10/21 16:25:10;;;;;;;4.40;0.85;;;14.10;99.90;;;;;;7298663;32;20138;-58
2023/10/21 16:29:14;;;;;;;6.03;0.90;;;14.00;99.90;;;;;;7295350;32;20127;-56
2023/10/21 16:33:16;;;;;;;6.70;1.37;;;14.00;99.90;;;;;;7289706;32;20284;-57
2023/10/21 16:37:18;;;;;;;6.30;1.20;;;13.90;99.90;;;;;;7293766;32;20160;-58
2023/10/21 16:41:20;;;;;;;3.90;1.10;;;14.00;99.90;;;;;;7294265;32;20111;-57
2023/10/21 16:45:22;;;;;;;4.57;1.10;;;13.80;99.90;;;;;;7301432;32;20115;-56
2023/10/21 16:49:23;;;;;;;4.37;0.95;;;13.80;99.90;;;;;;7300634;32;20127;-56
2023/10/21 16:53:25;;;;;;;5.45;1.00;;;13.70;99.90;;;;;;7303561;32;20319;-55
2023/10/21 16:57:27;;;;;;;7.05;0.80;;;13.70;99.90;;;;;;7302189;32;20123;-57
2023/10/21 17:01:29;;;;;;;6.62;0.90;;;13.80;99.90;;;;;;7296211;32;20154;-56
2023/10/21 17:05:31;;;;;;;7.53;0.93;;;13.70;99.90;;;;;;7300440;32;20245;-56
2023/10/21 17:09:33;;;;;;;7.50;1.62;;;13.80;99.90;;;;;;7293909;32;20164;-57
2023/10/21 17:13:34;;;;;;;6.80;1.77;;;13.80;99.90;;;;;;7301604;32;20113;-57
2023/10/21 17:17:36;;;;;;;4.53;0.90;;;13.80;99.90;;;;;;7300488;32;20529;-57
2023/10/21 17:21:38;;;;;;;5.62;0.90;;;13.80;99.90;;;;;;7302755;32;20254;-56
2023/10/21 17:25:40;;;;;;;5.12;1.00;;;13.80;99.90;;;;;;7295866;32;20111;-55
2023/10/21 17:29:42;;;;;;;4.80;0.75;;;13.70;99.90;;;;;;7293904;32;20171;-56
2023/10/21 17:33:44;;;;;;;5.18;0.65;;;13.60;99.90;;;;;;7295505;32;20163;-56
2023/10/21 17:37:52;;;;;;;6.15;0.90;;;13.60;99.90;;;;;;7298370;32;20329;-56
2023/10/21 17:41:54;;;;;;;3.75;0.65;;;13.50;99.90;;;;;;7299923;32;20108;-57
2023/10/21 17:45:55;;;;;;;4.97;0.90;;;13.40;99.90;;;;;;7299433;32;20279;-57
2023/10/21 17:49:57;;;;;;;3.85;0.80;;;13.40;99.90;;;;;;7295869;32;20186;-57
2023/10/21 17:53:59;;;;;;;4.10;1.15;;;13.30;99.90;;;;;;7293429;32;20222;-57
2023/10/21 17:58:01;;;;;;;3.22;0.82;;;13.30;99.90;;;;;;7301520;32;20119;-58
2023/10/21 18:02:03;;;;;;;4.10;0.90;;;13.20;99.90;;;;;;7293426;32;20104;-56
2023/10/21 18:06:05;;;;;;;5.25;1.00;;;13.30;99.90;;;;;;7300134;32;20190;-57
2023/10/21 18:10:07;;;;;;;6.80;1.02;;;13.30;99.90;;;;;;7299362;32;20176;-55
2023/10/21 18:14:09;;;;;;;2.97;1.00;;;13.40;99.90;;;;;;7295862;32;20571;-59
2023/10/21 18:18:11;;;;;;;5.28;1.00;;;13.60;99.90;;;;;;7293544;32;20639;-58
2023/10/21 18:22:13;;;;;;;4.93;1.12;;;13.70;99.90;;;;;;7300314;32;20122;-57
2023/10/21 18:26:15;;;;;;;7.72;1.10;;;13.70;99.90;;;;;;7293862;32;20187;-56
2023/10/21 18:30:17;;;;;;;5.62;0.80;;;13.60;99.90;;;;;;7295420;32;20127;-55
2023/10/21 18:34:19;;;;;;;2.65;0.80;;;13.70;99.90;;;;;;7302467;32;20154;-57
2023/10/21 18:38:21;;;;;;;6.35;0.95;;;13.50;99.90;;;;;;7304450;32;20218;-56
2023/10/21 18:42:23;;;;;;;4.25;0.95;;;13.60;99.90;;;;;;7302487;32;20186;-56
2023/10/21 18:46:25;;;;;;;4.65;0.80;;;13.70;99.90;;;;;;7300904;32;20122;-57
2023/10/21 18:50:26;;;;;;;5.07;1.08;;;13.80;99.90;;;;;;7302837;32;20105;-57
2023/10/21 18:54:30;;;;;;;5.85;1.15;;;13.70;99.90;;;;;;7301027;32;20126;-57
2023/10/21 18:58:32;;;;;;;5.28;1.10;;;13.70;99.90;;;;;;7298470;32;20143;-58
2023/10/21 19:02:34;;;;;;;4.18;1.15;;;13.60;99.90;;;;;;7304707;32;20178;-58
2023/10/21 19:06:37;;;;;;;7.40;1.35;;;13.70;99.90;;;;;;7300826;32;20213;-57
2023/10/21 19:10:45;;;;;;;5.85;0.98;;;13.50;99.90;;;;;;7296298;32;20153;-58
2023/10/21 19:14:47;;;;;;;5.07;1.12;;;13.50;99.90;;;;;;7302924;32;20138;-56
2023/10/21 19:18:50;;;;;;;4.87;1.00;;;13.50;99.90;;;;;;7299632;32;20138;-56
2023/10/21 19:22:52;;;;;;;5.75;0.95;;;13.50;99.90;;;;;;7293386;32;20537;-56
2023/10/21 19:26:54;;;;;;;4.10;0.85;;;13.50;99.90;;;;;;7301674;32;20224;-57
2023/10/21 19:30:57;;;;;;;4.72;0.90;;;13.50;99.90;;;;;;7302128;32;20092;-57
2023/10/21 19:34:59;;;;;;;7.55;1.00;;;13.50;99.90;;;;;;7298544;32;20096;-57
2023/10/21 19:39:00;;;;;;;3.95;0.77;;;13.50;99.90;;;;;;7296344;32;20198;-57
2023/10/21 19:43:02;;;;;;;4.68;0.88;;;13.60;99.90;;;;;;7300893;32;20157;-56
2023/10/21 19:47:04;;;;;;;5.75;1.10;;;13.50;99.90;;;;;;7297120;32;20172;-57
2023/10/21 19:51:09;;;;;;;3.75;0.90;;;13.40;99.90;;;;;;7300589;32;20309;-56
2023/10/21 19:55:10;;;;;;;6.32;1.02;;;13.30;99.90;;;;;;7296970;32;20333;-56
2023/10/21 19:59:12;;;;;;;4.03;0.80;;;13.30;99.90;;;;;;7293243;32;20132;-55
2023/10/21 20:03:14;;;;;;;3.87;0.75;;;13.30;99.90;;;;;;7296028;32;20507;-57
2023/10/21 20:07:16;;;;;;;4.87;1.33;;;13.20;99.90;;;;;;7300940;32;20205;-58
2023/10/21 20:11:18;;;;;;;5.20;0.95;;;13.20;99.90;;;;;;7299480;32;20167;-57
2023/10/21 20:15:20;;;;;;;5.22;0.80;;;13.00;99.90;;;;;;7296471;32;20119;-58
2023/10/21 20:19:22;;;;;;;3.80;0.95;;;13.00;99.90;;;;;;7298750;32;20350;-56
2023/10/21 20:23:24;;;;;;;4.07;1.10;;;13.00;99.90;;;;;;7299646;32;20169;-57
2023/10/21 20:27:26;;;;;;;2.47;0.73;;;13.00;99.90;;;;;;7300403;32;20211;-59
2023/10/21 20:31:31;;;;;;;4.25;0.90;;;12.90;99.90;;;;;;7292727;32;20131;-55
2023/10/21 20:35:33;;;;;;;4.62;0.82;;;12.90;99.90;;;;;;7292792;32;20225;-56
2023/10/21 20:39:36;;;;;;;2.28;0.90;;;12.90;99.90;;;;;;7296259;32;20157;-56
2023/10/21 20:43:40;;;;;;;5.00;0.80;;;12.80;99.90;;;;;;7299083;32;20527;-57
2023/10/21 20:47:42;;;;;;;5.18;1.17;;;12.80;99.90;;;;;;7292613;32;20728;-56
2023/10/21 20:51:45;;;;;;;6.32;0.90;;;12.80;99.90;;;;;;7294157;32;20180;-56
2023/10/21 20:55:46;;;;;;;5.90;0.80;;;12.70;99.90;;;;;;7293619;32;20273;-56
2023/10/21 20:59:48;;;;;;;4.95;1.02;;;12.70;99.90;;;;;;7297751;32;20198;-57
2023/10/21 21:03:50;;;;;;;5.22;0.70;;;12.70;99.90;;;;;;7293501;32;20130;-55
2023/10/21 21:07:52;;;;;;;3.45;0.80;;;12.70;99.90;;;;;;7294851;32;20194;-56
2023/10/21 21:11:54;;;;;;;3.45;0.85;;;12.60;99.90;;;;;;7293818;32;20590;-56
2023/10/21 21:15:59;;;;;;;3.87;0.82;;;12.70;99.90;;;;;;7292714;32;20755;-57
2023/10/21 21:20:05;;;;;;;6.07;0.95;;;12.70;99.90;;;;;;7296965;32;20104;-56
2023/10/21 21:24:07;;;;;;;4.15;0.77;;;12.70;99.90;;;;;;7291578;32;20173;-57
2023/10/21 21:28:09;;;;;;;3.87;0.85;;;12.60;99.90;;;;;;7292328;32;20520;-57
2023/10/21 21:32:11;;;;;;;5.00;0.95;;;12.70;99.90;;;;;;7292250;32;20941;-58
2023/10/21 21:36:13;;;;;;;2.83;0.70;;;12.50;99.90;;;;;;7293065;32;20179;-57
2023/10/21 21:40:15;;;;;;;2.92;0.82;;;12.50;99.90;;;;;;7297017;32;20146;-56